Celle, Germany

10:47 AM CEST on September 29, 2016 (GMT +0200)
Celle Army | | Change Station

Elev 171 ft 52.60 °N, 10.03 °E | Updated 27 minutes ago

Mostly Cloudy
Mostly Cloudy
68 °F
Feels Like 68 °F
N
20
Wind Variable Wind from SW

Today
High -- | Low -- °F
--% Chance of Precip.
Yesterday
High -- | Low -- °F
Precip. -- in
Pressure 29.98 in
Visibility 6.2 miles
Clouds Mostly Cloudy 25000 ft
Dew Point 50 °F
Humidity 52%
Rainfall 0.00 in
Snow Depth Not available.
7:18 AM 7:01 PM
Waning Crescent, 3% visible
METAR ETHC 290820Z 22017KT 9999 BKN250 20/10 Q1015 BLACKBLU+BLU+
Pressure 29.98 in
Visibility 6.2 miles
Clouds Mostly Cloudy 25000 ft
Dew Point 50 °F
Humidity 52%
Rainfall 0.00 in
Snow Depth Not available.
7:18 AM 7:01 PM
Waning Crescent, 3% visible
METAR ETHC 290820Z 22017KT 9999 BKN250 20/10 Q1015 BLACKBLU+BLU+

10-Day Weather Forecast

×

Almanac

Astronomy

Sep. 29, 2016 Rise Set
Actual Time
Civil Twilight
Nautical Twilight
Astronomical Twilight
Moon
Length of Visible Light
Length of Day
Tomorrow will be .
, % of the Moon is Illuminated

Today's Extremes

Country Highs Country Lows

Community

WunderPhotos

Upload Photos

1,942,446 photos uploaded!

WunderBlog® & News

Nearby

Air Quality

  Air Quality AQ Index Pollutant
Not available.

Snow Depth

Station Depth Elevation

Earthquake Activity

City Distance Mag. Time & Date
Minimum magnitude displayed is 2.5.

Coastal Water Temperatures

Place Temperature

Stations

Nearby Weather Stations

Station Location Temp. Windchill Dew Point Humidity Wind Precip. Elev Updated Type